Impacts TAF Board INFO
FOR SITUATIONAL AWARENESS. NOT TO BE USED FOR FLIGHT PLANNING PURPOSES.
IDs:

KIAD - Washington/Dulles In, VA, US

Issued at 0215 UTC 20 Aug 2018
Updated at 0332 UTC 20 Aug 2018
Potential Impact None Slight Moderate High
Time0305Z 20/04Z 20/05Z 20/06Z 20/07Z 20/08Z 20/09Z 20/10Z 20/11Z 20/12Z 20/13Z 20/14Z 20/15Z 20/16Z>>
Type OBS PRVL PRVL PRVL PRVL PRVL PRVL PRVL PRVL PRVL PRVL PRVL PRVL PRVL
VIS 10 >6 >6 >6 >6 >6 >6 >6 >6 >6 >6 >6 >6 >6
CIG 13 25 25 25 15 15 15 15 15 30 30 30 30 30
Cover BKN BKN BKN BKN BKN BKN BKN BKN BKN BKN BKN BKN BKN BKN
FltCat MVFR MVFR MVFR MVFR MVFR MVFR MVFR MVFR MVFR MVFR MVFR MVFR MVFR MVFR
WX -- -- -- -- -- -- -- -- -- -- -- -- -- --
WDir 50 50 50 50 VRB VRB VRB VRB VRB 60 60 60 60 60
WSpd 7 5 5 5 3 3 3 3 3 6 6 6 6 6
WGst -- -- -- -- -- -- -- -- -- -- -- -- -- --

Raw TAF
KIAD 200215Z 2002/2106 04007KT P6SM SCT030 BKN090 BKN250
  FM200400 05005KT P6SM BKN025 BKN080
  FM200700 VRB03KT P6SM BKN015 BKN060
  FM201200 06006KT P6SM SCT010 BKN030
  FM201800 09007KT P6SM BKN035
  FM210000 11005KT P6SM BKN025


Raw METAR
KIAD 200305Z 05007KT 10SM BKN013 BKN030 BKN055 BKN250 22/21 A3005 RMK AO2 T02170206
KIAD 200252Z 06006KT 10SM SCT030 BKN055 OVC250 22/21 A3005 RMK AO2 SLP173 T02170206 51019
KIAD 200152Z 04006KT 10SM FEW030 SCT045 BKN090 BKN250 22/21 A3004 RMK AO2 SLP170 T02220206
KIAD 200052Z 03008KT 10SM SCT090 BKN250 23/20 A3001 RMK AO2 SLP158 T02280200

METAR Board
Radar Display
Forecast Discussion

FOR SITUATIONAL AWARENESS. NOT TO BE USED FOR FLIGHT PLANNING PURPOSES.